Terminal Aerodrome Forecast
Issued by NWS

Home | Current Version | Previous Version | Text Only | Print | Product List | Glossary On
Versions: 1 2 3 4 5 6 7 8 9 10 11 12 13 14
000
FTUS46 KSTO 231739
TAFSAC
TAF
KSAC 231739Z 2318/2418 15006KT P6SM BKN050 BKN150
     FM232000 20007KT P6SM VCSH BKN040 OVC080
      TEMPO 2322/2402 -SHRA BKN025 OVC040
     FM240900 18006KT P6SM SCT050 BKN100=

USA.gov is the U.S. government's official web portal to all federal, state and local government web resources and services.